Time;durP1;ratioP1;P1;durP2;ratioP2;P2;SDS_P1;SDS_P2;PMS_P1;PMS_P2;Temp;Humidity;BMP_temperature;BMP_pressure;BME280_temperature;BME280_humidity;BME280_pressure;Samples;Min_cycle;Max_cycle;Signal;HPM_P1;HPM_P2
2023/08/01 00:01:07;;;;;;;9.50;7.40;;;;;;;20.54;100.00;99722.86;84128;283;137040;-60
2023/08/01 00:03:09;;;;;;;8.20;7.50;;;;;;;20.44;100.00;99723.67;84182;283;25137;-60
2023/08/01 00:05:11;;;;;;;8.70;8.00;;;;;;;20.35;100.00;99725.27;84097;283;137041;-63
2023/08/01 00:07:13;;;;;;;9.20;8.20;;;;;;;20.27;100.00;99730.83;84259;283;22545;-64
2023/08/01 00:09:15;;;;;;;8.40;7.60;;;;;;;20.21;100.00;99731.24;83958;283;137793;-63
2023/08/01 00:11:17;;;;;;;8.10;7.60;;;;;;;20.15;100.00;99727.92;84003;284;22601;-64
2023/08/01 00:13:19;;;;;;;9.90;9.20;;;;;;;20.08;100.00;99727.90;84211;283;137302;-60
2023/08/01 00:15:21;;;;;;;9.20;8.50;;;;;;;20.05;100.00;99722.42;84230;283;23394;-66
2023/08/01 00:17:22;;;;;;;11.00;10.10;;;;;;;20.07;100.00;99720.98;84118;283;137028;-64
2023/08/01 00:19:24;;;;;;;9.50;8.70;;;;;;;20.06;100.00;99720.71;84072;284;24375;-62
2023/08/01 00:21:26;;;;;;;8.80;8.10;;;;;;;20.06;100.00;99723.90;83911;284;137791;-60
2023/08/01 00:23:28;;;;;;;9.80;9.10;;;;;;;20.05;100.00;99719.79;84182;284;24117;-63
2023/08/01 00:25:30;;;;;;;11.50;10.30;;;;;;;20.04;100.00;99721.25;84120;283;137254;-63
2023/08/01 00:27:32;;;;;;;12.30;11.30;;;;;;;20.11;100.00;99721.74;84084;283;24130;-67
2023/08/01 00:29:41;;;;;;;11.50;10.60;;;;;;;20.16;100.00;99725.99;84058;284;137693;-62
2023/08/01 00:31:43;;;;;;;8.40;7.80;;;;;;;20.20;100.00;99723.68;84229;284;24746;-63
2023/08/01 00:33:45;;;;;;;9.00;8.20;;;;;;;20.21;100.00;99719.83;83931;284;137176;-64
2023/08/01 00:35:53;;;;;;;7.60;7.10;;;;;;;20.17;100.00;99720.52;84327;283;22548;-61
2023/08/01 00:37:55;;;;;;;8.80;8.20;;;;;;;20.11;100.00;99721.32;84023;284;138003;-63
2023/08/01 00:39:57;;;;;;;9.10;8.20;;;;;;;20.06;100.00;99719.13;84164;284;22550;-62
2023/08/01 00:41:59;;;;;;;8.30;7.70;;;;;;;20.05;100.00;99720.43;84200;282;138027;-66
2023/08/01 00:44:01;;;;;;;7.40;6.80;;;;;;;20.01;100.00;99718.05;84430;282;22639;-62
2023/08/01 00:46:05;;;;;;;8.50;7.70;;;;;;;19.96;100.00;99719.65;84111;284;24180;-61
2023/08/01 00:48:08;;;;;;;8.20;7.60;;;;;;;19.92;100.00;99718.66;84148;284;140707;-62
2023/08/01 00:50:09;;;;;;;10.00;8.80;;;;;;;19.88;100.00;99717.56;84215;284;22554;-60
2023/08/01 00:52:12;;;;;;;11.70;10.60;;;;;;;19.93;100.00;99717.96;84169;283;137382;-63
2023/08/01 00:54:16;;;;;;;9.90;9.10;;;;;;;20.12;100.00;99719.21;84197;285;22802;-64
2023/08/01 00:56:18;;;;;;;10.80;10.00;;;;;;;20.33;100.00;99717.36;84125;284;137168;-64
2023/08/01 00:58:20;;;;;;;9.80;9.10;;;;;;;20.52;100.00;99718.52;84091;286;25274;-63
2023/08/01 01:00:22;;;;;;;10.40;9.60;;;;;;;20.70;100.00;99709.36;84019;284;137566;-62
2023/08/01 01:02:24;;;;;;;8.40;7.70;;;;;;;20.82;100.00;99705.45;84263;284;25366;-62
2023/08/01 01:04:29;;;;;;;10.00;9.20;;;;;;;20.81;100.00;99701.02;84191;254;137175;-61
2023/08/01 01:06:41;;;;;;;10.30;9.50;;;;;;;20.79;100.00;99703.29;84178;284;22561;-61
2023/08/01 01:08:44;;;;;;;10.40;9.60;;;;;;;20.89;100.00;99700.31;84046;284;137273;-61
2023/08/01 01:10:46;;;;;;;9.40;8.70;;;;;;;21.03;100.00;99699.53;84207;284;22558;-65
2023/08/01 01:12:50;;;;;;;9.50;8.80;;;;;;;21.09;100.00;99698.21;84156;284;137364;-64
2023/08/01 01:14:52;;;;;;;10.80;10.00;;;;;;;21.14;100.00;99698.64;84217;285;25372;-61
2023/08/01 01:16:53;;;;;;;9.90;9.00;;;;;;;21.23;100.00;99699.98;84084;284;137475;-61
2023/08/01 01:18:55;;;;;;;10.20;9.50;;;;;;;21.29;100.00;99700.62;84165;284;22651;-63
2023/08/01 01:20:57;;;;;;;7.50;6.90;;;;;;;21.35;100.00;99699.52;84015;284;137547;-65
2023/08/01 01:23:01;;;;;;;7.10;6.50;;;;;;;21.32;100.00;99696.55;84288;283;22564;-61
2023/08/01 01:25:06;;;;;;;7.30;6.80;;;;;;;21.14;100.00;99694.11;84194;272;136897;-62
2023/08/01 01:27:09;;;;;;;6.80;6.20;;;;;;;20.93;100.00;99696.36;84279;284;22644;-63
2023/08/01 01:29:12;;;;;;;8.00;7.30;;;;;;;20.70;100.00;99700.75;84046;284;137655;-61
2023/08/01 01:31:15;;;;;;;8.50;7.50;;;;;;;20.46;100.00;99697.52;84047;286;22657;-58
2023/08/01 01:33:18;;;;;;;8.30;7.70;;;;;;;20.26;100.00;99697.70;84100;285;136959;-63
2023/08/01 01:35:20;;;;;;;8.80;8.10;;;;;;;20.11;100.00;99696.38;84372;283;22654;-63
2023/08/01 01:37:22;;;;;;;8.60;7.70;;;;;;;20.00;100.00;99696.55;84189;272;137129;-62
2023/08/01 01:39:24;;;;;;;9.00;8.10;;;;;;;19.90;100.00;99692.64;84259;283;25333;-60
2023/08/01 01:41:26;;;;;;;8.30;7.70;;;;;;;19.84;100.00;99695.70;84052;284;137038;-62
2023/08/01 01:43:27;;;;;;;7.90;7.10;;;;;;;19.75;100.00;99694.86;84207;285;22673;-62
2023/08/01 01:45:29;;;;;;;11.10;8.90;;;;;;;19.71;100.00;99693.47;84228;282;137317;-60
2023/08/01 01:47:31;;;;;;;8.40;7.40;;;;;;;19.75;100.00;99696.85;84306;282;26398;-62
2023/08/01 01:49:33;;;;;;;8.50;7.80;;;;;;;19.81;100.00;99699.04;84173;282;137107;-61
2023/08/01 01:51:34;;;;;;;8.40;7.70;;;;;;;19.86;100.00;99698.36;84202;284;22673;-64
2023/08/01 01:53:36;;;;;;;8.30;7.50;;;;;;;19.92;100.00;99698.42;84163;283;138862;-62
2023/08/01 01:55:38;;;;;;;7.90;7.20;;;;;;;19.93;100.00;99697.24;84152;284;22550;-70
2023/08/01 01:57:41;;;;;;;7.10;6.60;;;;;;;19.88;100.00;99696.85;84128;284;136978;-64
2023/08/01 01:59:44;;;;;;;7.30;6.80;;;;;;;19.84;100.00;99695.64;84317;284;24102;-62
2023/08/01 02:01:46;;;;;;;7.80;7.10;;;;;;;19.77;100.00;99696.81;83920;286;136803;-61
2023/08/01 02:03:48;;;;;;;7.30;6.60;;;;;;;19.68;100.00;99700.31;84218;283;22545;-63
2023/08/01 02:05:49;;;;;;;8.30;7.70;;;;;;;19.60;100.00;99702.55;84156;284;138304;-62
2023/08/01 02:07:52;;;;;;;9.00;8.30;;;;;;;19.55;100.00;99702.92;84254;284;22610;-62
2023/08/01 02:09:55;;;;;;;8.00;7.50;;;;;;;19.51;100.00;99703.48;84189;282;137115;-62
2023/08/01 02:11:57;;;;;;;9.10;8.30;;;;;;;19.49;100.00;99707.21;84230;284;24142;-63
2023/08/01 02:13:59;;;;;;;9.40;8.60;;;;;;;19.43;100.00;99706.20;84206;284;136974;-63
2023/08/01 02:16:01;;;;;;;8.20;7.50;;;;;;;19.37;100.00;99705.05;84324;282;24075;-63
2023/08/01 02:18:04;;;;;;;9.70;9.00;;;;;;;19.30;100.00;99705.63;84405;282;22554;-64
2023/08/01 02:20:06;;;;;;;13.30;12.30;;;;;;;19.25;100.00;99702.48;84257;284;137040;-60
2023/08/01 02:22:08;;;;;;;13.10;12.00;;;;;;;19.21;100.00;99700.73;84003;286;22563;-66
2023/08/01 02:24:11;;;;;;;12.90;12.00;;;;;;;19.20;100.00;99701.15;83977;285;138122;-63
2023/08/01 02:26:13;;;;;;;15.30;14.10;;;;;;;19.21;100.00;99700.04;84263;284;22570;-62
2023/08/01 02:28:15;;;;;;;14.10;13.00;;;;;;;19.20;100.00;99697.65;84092;284;138883;-63
2023/08/01 02:30:16;;;;;;;13.30;12.20;;;;;;;19.19;100.00;99695.96;84234;283;22550;-63
2023/08/01 02:32:19;;;;;;;14.90;13.50;;;;;;;19.11;100.00;99685.75;84167;283;137755;-62
2023/08/01 02:34:21;;;;;;;11.90;11.10;;;;;;;19.14;100.00;99699.02;84310;284;22552;-62
2023/08/01 02:36:22;;;;;;;11.30;10.40;;;;;;;19.17;100.00;99700.59;84394;283;138854;-59
2023/08/01 02:38:24;;;;;;;12.40;11.30;;;;;;;19.28;100.00;99702.27;84759;283;25279;-57
2023/08/01 02:40:26;;;;;;;9.70;9.10;;;;;;;19.40;100.00;99709.70;84626;282;137335;-64
2023/08/01 02:42:28;;;;;;;9.90;9.20;;;;;;;19.52;100.00;99712.30;84124;285;23436;-61
2023/08/01 02:44:30;;;;;;;11.20;10.40;;;;;;;19.68;100.00;99713.46;84146;284;137174;-62
2023/08/01 02:46:31;;;;;;;9.90;9.20;;;;;;;19.73;100.00;99713.30;84282;282;22549;-62
2023/08/01 02:48:35;;;;;;;9.70;8.90;;;;;;;19.67;100.00;99715.61;84020;284;138475;-63
2023/08/01 02:50:37;;;;;;;10.20;9.40;;;;;;;19.61;100.00;99716.08;84315;282;22662;-63
2023/08/01 02:52:38;;;;;;;9.80;9.10;;;;;;;19.55;100.00;99714.05;84112;282;137334;-63
2023/08/01 02:54:42;;;;;;;12.50;11.40;;;;;;;19.51;100.00;99712.95;84230;284;22570;-63
2023/08/01 02:56:44;;;;;;;11.80;10.90;;;;;;;19.52;100.00;99715.02;84137;284;137594;-63
2023/08/01 02:58:46;;;;;;;10.20;9.30;;;;;;;19.49;100.00;99714.71;84142;284;26310;-63
2023/08/01 03:00:47;;;;;;;9.80;9.10;;;;;;;19.48;100.00;99717.80;83981;284;137677;-63
2023/08/01 03:02:49;;;;;;;9.40;8.80;;;;;;;19.48;100.00;99719.58;83970;284;22548;-63
2023/08/01 03:04:53;;;;;;;10.10;9.40;;;;;;;19.53;100.00;99721.48;84018;285;136723;-61
2023/08/01 03:06:55;;;;;;;10.20;9.20;;;;;;;19.50;100.00;99717.91;84117;283;22636;-60
2023/08/01 03:08:57;;;;;;;12.30;11.30;;;;;;;19.38;100.00;99713.73;84068;284;137546;-70
2023/08/01 03:10:58;;;;;;;11.40;10.50;;;;;;;19.33;100.00;99712.73;84047;285;24072;-61
2023/08/01 03:13:00;;;;;;;11.60;10.70;;;;;;;19.30;100.00;99711.21;83972;284;137988;-61
2023/08/01 03:15:03;;;;;;;11.90;10.90;;;;;;;19.26;100.00;99709.78;84151;282;22552;-62
2023/08/01 03:17:05;;;;;;;10.10;9.40;;;;;;;19.24;100.00;99711.28;84058;282;187681;-60
2023/08/01 03:19:08;;;;;;;11.30;10.40;;;;;;;19.21;100.00;99712.41;84035;285;22550;-61
2023/08/01 03:21:10;;;;;;;10.40;9.50;;;;;;;19.17;100.00;99711.77;84041;284;139173;-62
2023/08/01 03:23:12;;;;;;;10.50;9.70;;;;;;;19.19;100.00;99715.52;84190;284;24156;-66
2023/08/01 03:25:14;;;;;;;10.60;9.60;;;;;;;19.23;100.00;99716.03;84087;284;137113;-67
2023/08/01 03:27:16;;;;;;;11.40;10.60;;;;;;;19.29;100.00;99713.73;84257;284;22813;-60
2023/08/01 03:29:18;;;;;;;10.10;9.30;;;;;;;19.31;100.00;99718.30;84113;284;137575;-62
2023/08/01 03:31:20;;;;;;;11.90;10.70;;;;;;;19.34;100.00;99719.83;84203;284;22551;-63
2023/08/01 03:33:22;;;;;;;10.50;9.60;;;;;;;19.35;100.00;99719.84;84021;284;137656;-67
2023/08/01 03:35:24;;;;;;;11.30;10.50;;;;;;;19.39;100.00;99717.69;84317;284;22575;-71
2023/08/01 03:37:27;;;;;;;10.60;9.70;;;;;;;19.42;100.00;99710.02;84161;284;138629;-66
2023/08/01 03:39:29;;;;;;;10.70;9.80;;;;;;;19.52;100.00;99719.27;84197;285;25146;-64
2023/08/01 03:41:32;;;;;;;10.90;10.00;;;;;;;19.55;100.00;99721.73;84134;283;139084;-63
2023/08/01 03:43:34;;;;;;;10.40;9.50;;;;;;;19.55;100.00;99720.09;84241;284;24575;-61
2023/08/01 03:45:36;;;;;;;9.70;9.00;;;;;;;19.52;100.00;99717.44;84079;284;138901;-62
2023/08/01 03:47:38;;;;;;;9.80;9.00;;;;;;;19.57;100.00;99713.14;84282;284;25217;-66
2023/08/01 03:49:41;;;;;;;9.20;8.60;;;;;;;19.63;100.00;99713.91;84239;283;137206;-66
2023/08/01 03:51:43;;;;;;;11.50;10.70;;;;;;;19.74;100.00;99710.30;84147;282;25333;-65
2023/08/01 03:53:46;;;;;;;10.10;9.20;;;;;;;19.92;100.00;99710.06;84081;284;137572;-64
2023/08/01 03:56:00;;;;;;;10.10;9.40;;;;;;;20.21;100.00;99711.81;83930;284;22555;-73
2023/08/01 03:58:03;;;;;;;9.00;8.40;;;;;;;20.52;100.00;99715.60;83870;285;22649;-65
2023/08/01 04:00:13;;;;;;;9.40;8.50;;;;;;;20.91;100.00;99717.42;84005;284;137128;-65
2023/08/01 04:02:15;;;;;;;8.50;7.90;;;;;;;21.40;100.00;99716.38;84066;282;24141;-64
2023/08/01 04:04:17;;;;;;;8.80;7.90;;;;;;;21.78;100.00;99719.85;83913;282;137321;-65
2023/08/01 04:06:20;;;;;;;10.10;9.40;;;;;;;22.03;100.00;99721.41;84049;283;25216;-63
2023/08/01 04:08:22;;;;;;;8.10;7.50;;;;;;;22.13;100.00;99721.90;84086;283;137803;-66
2023/08/01 04:10:24;;;;;;;9.60;8.60;;;;;;;22.15;100.00;99721.89;84207;281;22558;-66
2023/08/01 04:12:26;;;;;;;9.10;8.30;;;;;;;22.23;100.00;99724.23;83976;283;137201;-66
2023/08/01 04:14:28;;;;;;;8.30;7.70;;;;;;;22.38;100.00;99724.99;84099;283;22995;-64
2023/08/01 04:16:30;;;;;;;8.20;7.70;;;;;;;22.65;100.00;99727.36;84120;283;137147;-67
2023/08/01 04:18:32;;;;;;;7.60;7.10;;;;;;;22.94;100.00;99726.77;84234;283;24208;-64
2023/08/01 04:20:34;;;;;;;8.50;7.00;;;;;;;23.10;100.00;99725.36;84044;283;137159;-61
2023/08/01 04:22:36;;;;;;;7.60;7.10;;;;;;;23.19;100.00;99728.10;84083;283;22560;-64
2023/08/01 04:24:37;;;;;;;8.30;7.80;;;;;;;23.23;100.00;99720.94;84034;283;138611;-67
2023/08/01 04:26:39;;;;;;;7.40;6.90;;;;;;;23.38;100.00;99725.09;84210;283;22548;-68
2023/08/01 04:28:41;;;;;;;11.50;7.90;;;;;;;23.61;100.00;99722.38;84099;283;137141;-69
2023/08/01 04:30:49;;;;;;;7.50;6.90;;;;;;;23.91;100.00;99725.78;84133;283;24139;-71
2023/08/01 04:32:51;;;;;;;8.40;7.90;;;;;;;24.36;100.00;99723.44;84055;283;136854;-64
2023/08/01 04:34:53;;;;;;;9.50;8.70;;;;;;;24.60;100.00;99728.98;84160;275;22549;-67
2023/08/01 04:36:55;;;;;;;7.60;7.00;;;;;;;24.47;100.00;99732.98;84108;282;137688;-69
2023/08/01 04:38:57;;;;;;;7.70;7.20;;;;;;;24.22;100.00;99731.04;84237;283;22552;-64
2023/08/01 04:41:00;;;;;;;8.20;7.40;;;;;;;23.96;100.00;99731.39;84074;283;136326;-66
2023/08/01 04:43:02;;;;;;;9.20;8.40;;;;;;;23.79;100.00;99728.75;84209;282;24141;-64
2023/08/01 04:45:06;;;;;;;8.40;7.40;;;;;;;23.79;100.00;99723.38;83976;282;136955;-65
2023/08/01 04:47:08;;;;;;;8.30;7.70;;;;;;;23.87;100.00;99722.84;84022;284;22562;-67
2023/08/01 04:49:10;;;;;;;7.30;6.70;;;;;;;23.98;100.00;99721.95;84116;283;138646;-64
2023/08/01 04:51:12;;;;;;;9.40;8.70;;;;;;;24.00;100.00;99718.38;84193;283;22555;-67
2023/08/01 04:53:13;;;;;;;7.60;7.20;;;;;;;24.12;100.00;99723.88;84103;282;138552;-62
2023/08/01 04:55:15;;;;;;;11.10;8.30;;;;;;;24.16;100.00;99722.61;84004;284;22577;-67
2023/08/01 04:57:19;;;;;;;8.00;7.50;;;;;;;24.26;100.00;99724.70;84137;284;137492;-64
2023/08/01 04:59:21;;;;;;;8.60;7.90;;;;;;;24.33;100.00;99724.02;84236;283;24141;-67
2023/08/01 05:01:23;;;;;;;7.70;7.20;;;;;;;24.39;100.00;99722.52;84047;283;136990;-65
2023/08/01 05:03:25;;;;;;;6.40;6.00;;;;;;;24.56;100.00;99726.25;84154;283;22942;-65
2023/08/01 05:05:27;;;;;;;6.90;6.30;;;;;;;24.71;100.00;99724.61;84026;284;136219;-66
2023/08/01 05:07:30;;;;;;;6.60;6.20;;;;;;;24.83;100.00;99725.28;84076;283;22628;-67
2023/08/01 05:09:32;;;;;;;7.20;6.70;;;;;;;25.05;100.00;99725.45;84116;283;136506;-67
2023/08/01 05:11:34;;;;;;;7.00;6.50;;;;;;;25.26;100.00;99727.48;84233;283;25268;-64
2023/08/01 05:13:36;;;;;;;6.40;5.90;;;;;;;25.48;100.00;99725.90;84172;283;136701;-64
2023/08/01 05:15:37;;;;;;;5.70;5.40;;;;;;;25.66;100.00;99724.39;84193;283;24696;-63
2023/08/01 05:17:40;;;;;;;6.00;5.60;;;;;;;25.73;100.00;99724.41;84112;283;136450;-68
2023/08/01 05:19:42;;;;;;;7.00;6.50;;;;;;;25.72;100.00;99725.58;84173;283;22618;-70
2023/08/01 05:21:43;;;;;;;7.00;6.40;;;;;;;25.78;100.00;99727.95;84066;283;136382;-67
2023/08/01 05:23:45;;;;;;;7.70;7.10;;;;;;;26.03;100.00;99730.69;84196;283;25301;-68
2023/08/01 05:25:48;;;;;;;5.80;5.40;;;;;;;26.51;98.95;99731.47;84047;283;137812;-68
2023/08/01 05:27:50;;;;;;;6.90;6.50;;;;;;;26.93;95.25;99736.59;84062;283;22549;-70
2023/08/01 05:29:52;;;;;;;6.70;6.20;;;;;;;27.22;92.59;99736.58;84000;283;136342;-70
2023/08/01 05:31:54;;;;;;;5.80;4.70;;;;;;;27.45;89.94;99737.44;84109;283;22736;-67
2023/08/01 05:33:56;;;;;;;3.20;3.00;;;;;;;27.59;89.33;99736.88;83961;283;136942;-66
2023/08/01 05:35:57;;;;;;;3.60;3.40;;;;;;;27.65;87.26;99740.77;84084;283;22552;-66
2023/08/01 05:38:00;;;;;;;2.50;2.40;;;;;;;27.64;87.36;99738.23;84127;283;136418;-68
2023/08/01 05:40:05;;;;;;;2.90;2.70;;;;;;;27.61;86.05;99734.77;84168;283;25145;-70
2023/08/01 05:42:10;;;;;;;2.80;2.60;;;;;;;27.49;87.07;99724.69;84073;283;24247;-66
2023/08/01 05:44:11;;;;;;;;;;;;;;;27.59;85.93;99730.05;83995;284;137076;-68
2023/08/01 05:46:13;;;;;;;3.50;3.00;;;;;;;27.44;85.26;99729.36;84300;283;24085;-67
2023/08/01 05:48:15;;;;;;;1.80;1.80;;;;;;;27.16;87.70;99729.59;83999;282;136531;-70
2023/08/01 05:50:18;;;;;;;2.30;2.10;;;;;;;27.06;88.90;99728.92;84245;283;22548;-68
2023/08/01 05:52:19;;;;;;;1.90;1.80;;;;;;;27.15;88.23;99730.61;84162;282;137005;-65
2023/08/01 05:54:21;;;;;;;1.80;1.70;;;;;;;27.33;87.84;99731.40;84360;282;25152;-67
2023/08/01 05:56:23;;;;;;;2.20;1.40;;;;;;;27.57;86.81;99736.16;84052;282;137245;-67
2023/08/01 05:58:26;;;;;;;1.30;1.20;;;;;;;27.74;84.22;99738.38;84206;283;22550;-70
2023/08/01 06:00:30;;;;;;;1.50;1.50;;;;;;;27.75;82.93;99737.09;84171;283;136302;-71
2023/08/01 06:02:33;;;;;;;1.60;0.90;;;;;;;27.59;84.07;99727.80;84162;283;24108;-64
2023/08/01 06:04:38;;;;;;;1.40;1.20;;;;;;;27.70;84.06;99737.50;84099;283;136084;-62
2023/08/01 06:06:40;;;;;;;3.00;1.50;;;;;;;27.79;82.87;99734.17;84095;272;23367;-68
2023/08/01 06:08:43;;;;;;;2.00;1.30;;;;;;;27.81;83.23;99732.60;84285;283;136135;-67
2023/08/01 06:10:45;;;;;;;3.30;1.70;;;;;;;27.87;84.78;99731.39;84155;285;22572;-69
2023/08/01 06:12:47;;;;;;;2.50;1.00;;;;;;;28.00;83.69;99731.46;84129;282;135928;-69
2023/08/01 06:14:49;;;;;;;1.80;1.00;;;;;;;27.96;80.93;99729.21;84144;284;25377;-67
2023/08/01 06:16:51;;;;;;;4.50;1.80;;;;;;;27.74;82.00;99737.83;84017;282;136228;-68
2023/08/01 06:18:53;;;;;;;1.10;1.00;;;;;;;27.55;82.97;99731.42;84105;283;22547;-67
2023/08/01 06:20:57;;;;;;;4.90;1.10;;;;;;;27.43;82.69;99731.86;84052;283;137189;-67
2023/08/01 06:22:59;;;;;;;2.60;1.50;;;;;;;27.32;83.14;99731.60;84184;283;22579;-67
2023/08/01 06:25:01;;;;;;;3.20;1.00;;;;;;;27.20;84.40;99731.57;84093;283;136134;-68
2023/08/01 06:27:03;;;;;;;1.60;1.00;;;;;;;27.09;85.06;99719.45;84047;277;22639;-68
2023/08/01 06:29:07;;;;;;;4.30;1.40;;;;;;;27.16;85.28;99731.30;83994;282;136090;-68
2023/08/01 06:31:09;;;;;;;1.90;1.00;;;;;;;27.21;85.54;99731.29;84147;281;22639;-68
2023/08/01 06:33:10;;;;;;;4.00;1.50;;;;;;;27.27;85.89;99731.41;84004;281;136126;-67
2023/08/01 06:35:12;;;;;;;2.80;1.20;;;;;;;27.28;84.50;99729.91;84084;283;28606;-66
2023/08/01 06:37:15;;;;;;;0.70;0.70;;;;;;;27.28;83.51;99735.76;84016;284;137089;-66
2023/08/01 06:39:16;;;;;;;4.10;0.60;;;;;;;27.21;82.72;99732.41;84170;284;25195;-68
2023/08/01 06:41:18;;;;;;;2.10;0.90;;;;;;;27.17;83.11;99732.85;84089;280;137400;-69
2023/08/01 06:43:20;;;;;;;5.40;1.00;;;;;;;27.18;84.00;99731.17;84223;283;25061;-68
2023/08/01 06:45:24;;;;;;;1.00;1.00;;;;;;;27.23;83.72;99729.03;83959;284;136427;-66
2023/08/01 06:47:26;;;;;;;2.20;1.00;;;;;;;27.32;84.39;99726.09;84049;284;22564;-66
2023/08/01 06:49:27;;;;;;;0.70;0.60;;;;;;;27.36;83.88;99725.47;84022;283;137449;-64
2023/08/01 06:51:30;;;;;;;1.10;0.90;;;;;;;27.38;83.30;99722.09;84154;283;25806;-68
2023/08/01 06:53:31;;;;;;;0.70;0.70;;;;;;;27.44;84.47;99722.70;84181;284;136068;-68
2023/08/01 06:55:33;;;;;;;3.30;1.30;;;;;;;27.63;83.11;99716.80;84155;283;22553;-67
2023/08/01 06:57:37;;;;;;;2.50;1.30;;;;;;;27.70;82.72;99716.14;83939;285;136043;-70
2023/08/01 06:59:38;;;;;;;1.30;1.10;;;;;;;27.75;83.34;99716.77;84237;283;23744;-67
2023/08/01 07:01:43;;;;;;;0.80;0.60;;;;;;;27.75;82.83;99716.98;83865;284;137476;-66
2023/08/01 07:03:45;;;;;;;1.40;1.20;;;;;;;27.71;82.40;99721.05;84330;283;22565;-67
2023/08/01 07:05:47;;;;;;;1.00;0.90;;;;;;;27.75;81.20;99721.61;84132;283;137291;-68
2023/08/01 07:07:51;;;;;;;2.50;1.50;;;;;;;27.79;81.50;99721.25;84194;283;23285;-67
2023/08/01 07:09:53;;;;;;;1.50;0.80;;;;;;;27.85;82.09;99716.27;83949;283;136717;-69
2023/08/01 07:11:55;;;;;;;6.00;0.70;;;;;;;27.94;80.92;99716.31;84020;283;24093;-68
2023/08/01 07:13:58;;;;;;;1.20;1.20;;;;;;;28.04;80.61;99717.11;84116;283;135933;-76
2023/08/01 07:16:00;;;;;;;1.30;0.90;;;;;;;28.12;80.06;99716.37;84125;283;25200;-65
2023/08/01 07:20:13;;;;;;;1.20;1.00;;;;;;;28.08;80.56;99715.66;82831;303;547450;-74
2023/08/01 07:22:15;;;;;;;1.90;1.40;;;;;;;27.98;80.73;99715.67;83696;292;24204;-71
2023/08/01 07:24:18;;;;;;;2.10;0.70;;;;;;;27.97;79.27;99721.09;84001;286;135534;-73
2023/08/01 07:26:20;;;;;;;0.80;0.70;;;;;;;27.93;78.95;99718.48;84217;285;22602;-70
2023/08/01 07:28:22;;;;;;;0.80;0.80;;;;;;;27.88;78.65;99721.38;83983;285;135709;-64
2023/08/01 07:30:25;;;;;;;2.20;0.70;;;;;;;27.71;79.14;99725.33;83926;286;21532;-67
2023/08/01 07:32:27;;;;;;;1.00;0.80;;;;;;;27.47;81.41;99721.73;83970;286;136853;-66
2023/08/01 07:34:35;;;;;;;2.00;0.70;;;;;;;27.35;82.07;99724.02;83885;285;421705;-68
2023/08/01 07:36:37;;;;;;;2.40;1.10;;;;;;;27.27;82.75;99724.26;84098;284;136632;-73
2023/08/01 07:38:39;;;;;;;1.40;0.80;;;;;;;27.13;83.90;99723.07;84273;284;24270;-67
2023/08/01 07:40:41;;;;;;;0.70;0.70;;;;;;;26.97;84.68;99724.45;83956;284;135901;-65
2023/08/01 07:42:42;;;;;;;1.40;1.40;;;;;;;26.84;86.65;99719.75;84123;277;22609;-66
2023/08/01 07:44:44;;;;;;;0.90;0.80;;;;;;;26.73;86.64;99720.90;83980;284;135958;-66
2023/08/01 07:46:46;;;;;;;1.10;1.10;;;;;;;26.62;87.38;99716.52;84097;285;25273;-67
2023/08/01 07:48:48;;;;;;;0.70;0.70;;;;;;;26.62;88.41;99712.75;84050;285;136025;-65
2023/08/01 07:50:51;;;;;;;1.40;1.30;;;;;;;26.59;87.18;99716.96;83940;285;24190;-67
2023/08/01 07:52:52;;;;;;;1.50;1.40;;;;;;;26.53;87.18;99720.87;84002;284;136121;-67
2023/08/01 07:54:57;;;;;;;1.50;1.40;;;;;;;26.40;88.86;99719.73;84024;284;22597;-71
2023/08/01 07:56:59;;;;;;;2.70;1.00;;;;;;;26.32;89.22;99722.48;84120;284;138462;-66
2023/08/01 07:59:00;;;;;;;3.00;1.30;;;;;;;26.27;90.53;99727.76;84121;283;22817;-62
2023/08/01 08:01:06;;;;;;;1.10;1.10;;;;;;;26.21;89.94;99727.61;83950;283;135917;-69
2023/08/01 08:03:08;;;;;;;1.00;1.00;;;;;;;26.13;90.36;99721.02;84197;284;24117;-66
2023/08/01 08:05:12;;;;;;;0.80;0.80;;;;;;;26.14;90.52;99722.36;84092;286;137278;-67
2023/08/01 08:07:15;;;;;;;0.90;0.90;;;;;;;26.24;90.55;99726.67;84172;284;22807;-65
2023/08/01 08:09:16;;;;;;;0.70;0.70;;;;;;;26.34;88.68;99725.69;84048;284;135927;-63
2023/08/01 08:11:18;;;;;;;0.60;0.60;;;;;;;26.39;88.35;99722.65;84149;284;22649;-67
2023/08/01 08:13:31;;;;;;;1.30;1.30;;;;;;;26.43;87.53;99722.23;84064;282;135953;-66
2023/08/01 08:15:35;;;;;;;1.30;1.30;;;;;;;26.46;87.98;99722.58;84100;284;22560;-68
2023/08/01 08:17:37;;;;;;;1.00;1.00;;;;;;;26.43;88.15;99719.02;84212;271;245796;-66
2023/08/01 08:19:39;;;;;;;3.10;1.40;;;;;;;26.41;88.66;99717.27;83946;286;25142;-64
2023/08/01 08:21:41;;;;;;;3.20;1.00;;;;;;;26.39;87.77;99713.86;83819;273;136036;-66
2023/08/01 08:23:43;;;;;;;2.80;1.40;;;;;;;26.32;88.61;99715.71;84086;285;24102;-65
2023/08/01 08:25:46;;;;;;;1.50;1.40;;;;;;;26.28;89.09;99717.26;83995;284;135875;-66
2023/08/01 08:27:49;;;;;;;0.50;0.50;;;;;;;26.12;89.33;99705.46;84228;284;110499;-67
2023/08/01 08:29:51;;;;;;;0.70;0.70;;;;;;;26.11;87.93;99717.30;84265;264;136015;-65
2023/08/01 08:31:53;;;;;;;1.20;1.10;;;;;;;26.03;88.36;99711.95;84027;286;25136;-63
2023/08/01 08:33:54;;;;;;;1.60;0.90;;;;;;;25.95;87.68;99714.42;84033;285;135744;-66
2023/08/01 08:35:58;;;;;;;1.00;0.60;;;;;;;25.89;87.68;99715.45;84076;285;25348;-63
2023/08/01 08:38:03;;;;;;;1.10;1.00;;;;;;;25.89;87.63;99711.15;83853;285;136034;-67
2023/08/01 08:40:06;;;;;;;1.40;1.30;;;;;;;25.92;87.93;99712.67;84033;285;135120;-65
2023/08/01 08:42:10;;;;;;;1.80;0.80;;;;;;;25.98;88.42;99708.73;83999;285;22548;-63
2023/08/01 08:44:14;;;;;;;1.40;1.20;;;;;;;26.02;89.54;99705.31;84001;285;135908;-64
2023/08/01 08:46:17;;;;;;;1.00;0.80;;;;;;;26.05;89.85;99706.61;84161;284;25266;-65
2023/08/01 08:48:19;;;;;;;1.00;0.70;;;;;;;26.12;89.91;99707.38;84011;284;135765;-65
2023/08/01 08:50:22;;;;;;;3.40;0.70;;;;;;;26.21;89.31;99701.16;84030;285;25238;-68
2023/08/01 08:52:25;;;;;;;0.80;0.70;;;;;;;26.32;87.93;99699.99;83915;284;137614;-65
2023/08/01 08:54:29;;;;;;;0.90;0.70;;;;;;;26.41;87.23;99702.02;84193;285;25290;-64
2023/08/01 08:56:31;;;;;;;1.20;1.10;;;;;;;26.44;85.60;99703.50;84199;284;135780;-64
2023/08/01 08:58:33;;;;;;;0.70;0.70;;;;;;;26.40;85.08;99698.71;84203;285;25158;-64
2023/08/01 09:00:38;;;;;;;0.80;0.80;;;;;;;26.36;84.10;99694.54;84093;284;135969;-68
2023/08/01 09:02:41;;;;;;;1.50;0.70;;;;;;;26.39;84.83;99696.06;84034;284;22548;-68
2023/08/01 09:04:43;;;;;;;0.50;0.50;;;;;;;26.51;85.82;99698.98;84047;285;137331;-66
2023/08/01 09:06:56;;;;;;;2.00;0.70;;;;;;;26.58;86.45;99699.82;84472;284;25248;-67
2023/08/01 09:09:07;;;;;;;2.00;1.50;;;;;;;26.60;85.31;99692.55;84002;285;135908;-66
2023/08/01 09:11:08;;;;;;;6.30;0.90;;;;;;;26.57;85.13;99685.23;84197;285;22563;-65
2023/08/01 09:13:10;;;;;;;1.20;0.70;;;;;;;26.55;85.61;99682.01;84066;285;137413;-65
2023/08/01 09:15:13;;;;;;;3.60;0.80;;;;;;;26.57;85.34;99674.31;84056;285;22616;-67
2023/08/01 09:17:16;;;;;;;1.30;0.50;;;;;;;26.61;84.31;99675.33;83945;285;136071;-64
2023/08/01 09:19:23;;;;;;;6.60;1.20;;;;;;;26.64;83.11;99675.86;84071;285;25750;-68
2023/08/01 09:21:25;;;;;;;1.00;0.70;;;;;;;26.60;82.54;99675.09;84083;285;136060;-66
2023/08/01 09:23:27;;;;;;;0.60;0.50;;;;;;;26.53;83.57;99672.87;84063;285;24076;-67
2023/08/01 09:25:32;;;;;;;2.40;0.80;;;;;;;26.45;83.91;99669.95;83888;284;136142;-66
2023/08/01 09:27:35;;;;;;;0.60;0.60;;;;;;;26.36;83.16;99671.87;84188;285;24115;-65
2023/08/01 09:29:36;;;;;;;0.80;0.80;;;;;;;26.28;81.32;99669.60;83983;285;135826;-66
2023/08/01 09:31:42;;;;;;;1.20;1.20;;;;;;;26.24;80.93;99664.16;84080;285;24144;-66
2023/08/01 09:33:46;;;;;;;0.90;0.80;;;;;;;26.33;81.55;99665.29;84297;284;135587;-73
2023/08/01 09:35:52;;;;;;;0.30;0.30;;;;;;;26.47;81.43;99661.77;84228;285;24131;-67
2023/08/01 09:37:55;;;;;;;0.80;0.80;;;;;;;26.56;79.86;99658.48;84010;285;135849;-66